Assateague Island Natl Seashore, Maryland
Current Conditions -  °F | °C
As of 12:53 PM on Tuesday 21 Oct 2014 (Local Time) from KOXB Reporting Station
Broken Clouds Broken Clouds  
Wind Chill: 21°   Ceiling: 3400
Heat Index: 21°   Visibility: 10mi
Dew Point: 13°   Wind: 8mph
Humidity: 59%   Direction: 260°W
Pressure: 29.83"   Gusts: NA
Location:  38.12°N, 75.19°W
Report Text: KOXB 211653Z AUTO 26007KT 220V320 10SM BKN034 21/13 A2983 RMK AO2 SLP101 T02110128 TSNO
Loading
Personal Weather Stations






























Interactive Weather Map
Tropical Storm Tracking
New forecast layout! Learn more

10-Day Weather Forecast

Advertisements
Track Severe Weather on mobile